Montefaro, España

1:05 PM CET en Noviembre 23, 2014 (GMT +0100)
ICORUAFE2 | Change Station
CLOSE
Current Station
Estación meteorológica personal
Location: Ferrol, CORUnA
Altura: 50 ft
Estaciones meteorológicas cercanas

Alt 50 ft 43.49 °N, 8.26 °W | Updated 4 seconds ago

Rain
Lluvia
54.9 ° F
Sensación térmica 54.9 ° F
N
0.0
Viento Variable Viento desde Norte
Gusts 8.5 mph

Hoy
Alta -- | Baja -- ° F
--% Posibilidad de precipitaciones
Ayer
Alta -- | Baja -- ° F
Precip. -- pul
8:36 AM 6:02 PM
Luna nueva, 1% visible
Presión 30.01 pul
Visibilidad 4.3 Millas
Nubes Baja 700 ft
Nubes dispersas 1800 ft
Muy nublado 4000 ft
Punto de rocío 52 ° F
Humedad 91%
Precipitaciones 0.00 pul
Espesor de la nieve No disponible.
UV 1 de una escala de 12
Polen No disponible.
Calidad del aire No disponible.
Flu Activity No disponible.
METAR LECO 231130Z 02005KT 340V060 7000 RA FEW007 SCT018 BKN040 12/11 Q1016 TEMPO 4000 RA BKN010

More Conditions Fewer Conditions

Presión 30.01 pul
Visibilidad 4.3 Millas
Nubes Baja 700 ft
Nubes dispersas 1800 ft
Muy nublado 4000 ft
Punto de rocío 52 ° F
Humedad 91%
Precipitaciones 0.00 pul
Espesor de la nieve No disponible.
UV 1 de una escala de 12
Polen No disponible.
Calidad del aire No disponible.
Flu Activity No disponible.
METAR LECO 231130Z 02005KT 340V060 7000 RA FEW007 SCT018 BKN040 12/11 Q1016 TEMPO 4000 RA BKN010

More Conditions Fewer Conditions

10-Day Weather Forecast

Almanac

Astronomía

Nov. 23, 2014 Salida Puesta
Hora real
Crepúsculo civil
Crepúsculo náutico
Crepúsculo astronómico
Luna
Horas de luz
Horas de luz
Tomorrow will be .
, % of the Moon is Illuminated

Extremos de hoy

Máximos del país Bajas del país

Community

WunderPhotos

Upload Photos

1,773,041 ¡fotos cargadas!

WunderBlogs® & News

Nearby

Calidad del aire

  Calidad del aire Índice AQ Contaminante
Not available.

Grosos de nieve

Estación Profundido Altura

Actividad de terremotos

Ciudad Distance Mag. Tiempo y dato
Magnitud mínima muestra es 2,5.

Temperaturas de aguas costeras

Lugar Temperatura

Estaciones meteorológicas cercanas